Time;durP1;ratioP1;P1;durP2;ratioP2;P2;SDS_P1;SDS_P2;PMS_P1;PMS_P2;Temp;Humidity;BMP_temperature;BMP_pressure;BME280_temperature;BME280_humidity;BME280_pressure;Samples;Min_cycle;Max_cycle;Signal;HPM_P1;HPM_P2
2021/01/09 00:00:50;;;;;;;;;;;18.90;37.70;;;;;;491718;240;1141;-54
2021/01/09 00:02:51;;;;;;;;;;;18.90;37.70;;;;;;491927;240;1056;-54
2021/01/09 00:04:52;;;;;;;;;;;18.90;37.80;;;;;;491642;240;1095;-54
2021/01/09 00:06:54;;;;;;;;;;;18.90;37.80;;;;;;491605;240;1166;-54
2021/01/09 00:08:55;;;;;;;;;;;18.90;37.80;;;;;;491639;240;1030;-54
2021/01/09 00:10:56;;;;;;;;;;;18.90;37.80;;;;;;491664;240;1124;-53
2021/01/09 00:12:57;;;;;;;;;;;18.90;37.80;;;;;;491959;240;2129;-54
2021/01/09 00:14:59;;;;;;;;;;;18.90;37.80;;;;;;491841;238;1281;-54
2021/01/09 00:17:00;;;;;;;;;;;18.80;37.80;;;;;;491856;240;1244;-54
2021/01/09 00:19:01;;;;;;;;;;;18.80;37.90;;;;;;491672;240;963;-54
2021/01/09 00:21:02;;;;;;;;;;;18.80;37.90;;;;;;491570;240;1046;-54
2021/01/09 00:23:04;;;;;;;;;;;18.80;37.90;;;;;;491586;240;1376;-54
2021/01/09 00:25:05;;;;;;;;;;;18.80;37.90;;;;;;491802;240;1045;-53
2021/01/09 00:27:06;;;;;;;;;;;18.80;37.90;;;;;;491598;240;1081;-54
2021/01/09 00:29:08;;;;;;;;;;;18.80;38.00;;;;;;491730;240;1044;-54
2021/01/09 00:31:09;;;;;;;;;;;18.80;38.00;;;;;;491578;240;1220;-54
2021/01/09 00:33:10;;;;;;;;;;;18.80;38.00;;;;;;491738;240;2133;-54
2021/01/09 00:35:11;;;;;;;;;;;18.80;38.00;;;;;;491596;240;1050;-54
2021/01/09 00:37:13;;;;;;;;;;;18.70;38.00;;;;;;491573;240;1520;-54
2021/01/09 00:39:14;;;;;;;;;;;18.70;38.00;;;;;;491645;240;1069;-54
2021/01/09 00:41:15;;;;;;;;;;;18.70;38.00;;;;;;491745;240;1110;-54
2021/01/09 00:43:17;;;;;;;;;;;18.70;36.70;;;;;;491648;240;946;-54
2021/01/09 00:45:18;;;;;;;;;;;18.70;38.00;;;;;;491621;240;1263;-54
2021/01/09 00:47:19;;;;;;;;;;;18.70;38.00;;;;;;491645;240;1063;-54
2021/01/09 00:49:20;;;;;;;;;;;18.60;38.00;;;;;;491677;240;1068;-54
2021/01/09 00:51:22;;;;;;;;;;;18.70;38.00;;;;;;491651;240;1130;-54
2021/01/09 00:53:23;;;;;;;;;;;18.60;38.00;;;;;;491785;240;2136;-54
2021/01/09 00:55:24;;;;;;;;;;;18.60;38.00;;;;;;491622;240;1037;-54
2021/01/09 00:57:27;;;;;;;;;;;18.70;38.00;;;;;;491575;240;1058;-54
2021/01/09 00:59:28;;;;;;;;;;;18.60;38.00;;;;;;491699;240;1089;-54
2021/01/09 01:01:29;;;;;;;;;;;18.60;38.00;;;;;;491712;240;1251;-54
2021/01/09 01:03:30;;;;;;;;;;;18.60;38.10;;;;;;491715;240;1058;-54
2021/01/09 01:05:32;;;;;;;;;;;18.60;38.00;;;;;;491649;240;1048;-54
2021/01/09 01:07:36;;;;;;;;;;;18.60;38.10;;;;;;491755;240;976;-54
2021/01/09 01:09:36;;;;;;;;;;;18.60;38.10;;;;;;492042;241;2326;-54
2021/01/09 01:11:37;;;;;;;;;;;18.60;38.10;;;;;;491709;240;1629;-54
2021/01/09 01:13:39;;;;;;;;;;;18.60;38.10;;;;;;491736;240;2129;-54
2021/01/09 01:15:40;;;;;;;;;;;18.50;38.10;;;;;;491496;240;1492;-54
2021/01/09 01:17:41;;;;;;;;;;;18.60;38.10;;;;;;491800;240;1236;-54
2021/01/09 01:19:42;;;;;;;;;;;18.60;38.10;;;;;;491925;240;1213;-54
2021/01/09 01:21:44;;;;;;;;;;;18.50;38.10;;;;;;491510;240;1220;-54
2021/01/09 01:23:45;;;;;;;;;;;18.50;38.10;;;;;;491728;240;965;-54
2021/01/09 01:25:46;;;;;;;;;;;18.50;38.10;;;;;;491530;240;1181;-54
2021/01/09 01:27:47;;;;;;;;;;;18.50;38.10;;;;;;491614;240;1229;-54
2021/01/09 01:29:49;;;;;;;;;;;18.50;38.10;;;;;;491899;240;1060;-54
2021/01/09 01:31:50;;;;;;;;;;;18.50;38.10;;;;;;491849;240;1176;-53
2021/01/09 01:33:51;;;;;;;;;;;18.50;38.10;;;;;;491674;240;2136;-54
2021/01/09 01:35:53;;;;;;;;;;;18.50;38.10;;;;;;491756;240;1217;-54
2021/01/09 01:37:54;;;;;;;;;;;18.50;38.10;;;;;;491577;240;1210;-53
2021/01/09 01:39:55;;;;;;;;;;;18.50;38.20;;;;;;491626;240;1080;-54
2021/01/09 01:41:56;;;;;;;;;;;18.50;38.10;;;;;;491589;240;1144;-54
2021/01/09 01:43:58;;;;;;;;;;;18.40;38.20;;;;;;491607;240;1202;-54
2021/01/09 01:45:59;;;;;;;;;;;18.50;38.10;;;;;;491589;240;1336;-54
2021/01/09 01:48:00;;;;;;;;;;;18.50;38.00;;;;;;491664;240;1206;-54
2021/01/09 01:50:02;;;;;;;;;;;18.50;38.00;;;;;;491660;240;1083;-54
2021/01/09 01:52:03;;;;;;;;;;;18.60;38.00;;;;;;491678;240;1093;-55
2021/01/09 01:54:04;;;;;;;;;;;18.60;37.90;;;;;;491725;240;2141;-54
2021/01/09 01:56:05;;;;;;;;;;;18.60;37.90;;;;;;491794;240;950;-54
2021/01/09 01:58:07;;;;;;;;;;;18.60;37.90;;;;;;491732;240;1220;-54
2021/01/09 02:00:08;;;;;;;;;;;18.60;37.80;;;;;;491616;240;1182;-54
2021/01/09 02:02:09;;;;;;;;;;;18.70;37.80;;;;;;491597;240;1257;-54
2021/01/09 02:04:11;;;;;;;;;;;18.60;37.70;;;;;;491778;240;1173;-54
2021/01/09 02:06:12;;;;;;;;;;;18.70;37.80;;;;;;491648;240;1189;-54
2021/01/09 02:08:13;;;;;;;;;;;18.70;37.70;;;;;;491758;240;1030;-54
2021/01/09 02:10:14;;;;;;;;;;;18.70;37.70;;;;;;491659;240;955;-54
2021/01/09 02:12:16;;;;;;;;;;;18.70;37.70;;;;;;491622;240;1230;-54
2021/01/09 02:14:17;;;;;;;;;;;18.70;37.60;;;;;;491765;240;2136;-54
2021/01/09 02:16:18;;;;;;;;;;;18.80;37.70;;;;;;491578;240;1107;-55
2021/01/09 02:18:19;;;;;;;;;;;18.80;37.60;;;;;;491607;240;1235;-54
2021/01/09 02:20:21;;;;;;;;;;;18.80;37.60;;;;;;491572;240;1121;-54
2021/01/09 02:22:22;;;;;;;;;;;18.80;37.60;;;;;;491688;240;1188;-54
2021/01/09 02:24:23;;;;;;;;;;;18.80;37.60;;;;;;491784;240;1061;-54
2021/01/09 02:26:25;;;;;;;;;;;18.80;37.50;;;;;;491601;240;1154;-54
2021/01/09 02:28:26;;;;;;;;;;;18.80;37.50;;;;;;491694;240;1146;-55
2021/01/09 02:30:27;;;;;;;;;;;18.90;37.50;;;;;;491730;240;1299;-54
2021/01/09 02:32:28;;;;;;;;;;;18.90;37.50;;;;;;491738;239;1261;-54
2021/01/09 02:34:31;;;;;;;;;;;18.90;37.50;;;;;;491651;240;2144;-54
2021/01/09 02:36:32;;;;;;;;;;;18.90;37.40;;;;;;491585;240;1206;-55
2021/01/09 02:38:33;;;;;;;;;;;18.90;37.30;;;;;;491662;240;1323;-54
2021/01/09 02:40:34;;;;;;;;;;;18.90;37.30;;;;;;491624;240;1136;-54
2021/01/09 02:42:36;;;;;;;;;;;18.90;37.30;;;;;;491616;240;1192;-54
2021/01/09 02:44:37;;;;;;;;;;;18.90;37.30;;;;;;491759;240;1127;-54
2021/01/09 02:46:38;;;;;;;;;;;19.00;37.40;;;;;;491622;240;1515;-54
2021/01/09 02:48:40;;;;;;;;;;;19.00;37.40;;;;;;491619;240;1143;-53
2021/01/09 02:50:41;;;;;;;;;;;19.00;37.40;;;;;;491919;240;1152;-54
2021/01/09 02:52:42;;;;;;;;;;;19.00;37.30;;;;;;491639;240;1226;-54
2021/01/09 02:54:44;;;;;;;;;;;19.00;37.30;;;;;;491841;240;2132;-54
2021/01/09 02:56:45;;;;;;;;;;;19.00;37.30;;;;;;491719;240;1022;-55
2021/01/09 02:58:46;;;;;;;;;;;19.00;37.20;;;;;;491801;240;1090;-54
2021/01/09 03:00:47;;;;;;;;;;;19.10;37.20;;;;;;491649;240;963;-53
2021/01/09 03:02:49;;;;;;;;;;;19.10;37.20;;;;;;491599;240;1338;-54
2021/01/09 03:04:50;;;;;;;;;;;19.10;37.20;;;;;;491634;240;1055;-54
2021/01/09 03:06:51;;;;;;;;;;;19.10;37.20;;;;;;491696;240;964;-54
2021/01/09 03:08:52;;;;;;;;;;;19.10;37.20;;;;;;491662;240;1027;-54
2021/01/09 03:10:54;;;;;;;;;;;19.10;35.90;;;;;;491846;240;1032;-54
2021/01/09 03:12:55;;;;;;;;;;;19.10;37.10;;;;;;491646;240;1081;-54
2021/01/09 03:14:56;;;;;;;;;;;19.10;37.10;;;;;;491741;240;2128;-54
2021/01/09 03:16:57;;;;;;;;;;;19.20;37.10;;;;;;491706;240;1225;-54
2021/01/09 03:18:59;;;;;;;;;;;19.20;37.10;;;;;;491700;240;1384;-54
2021/01/09 03:21:00;;;;;;;;;;;19.20;37.10;;;;;;491868;240;1011;-54
2021/01/09 03:23:01;;;;;;;;;;;19.20;37.10;;;;;;491722;240;1231;-54
2021/01/09 03:25:03;;;;;;;;;;;19.20;37.00;;;;;;491843;240;1216;-54
2021/01/09 03:27:04;;;;;;;;;;;19.20;37.10;;;;;;491642;240;1091;-54
2021/01/09 03:29:05;;;;;;;;;;;19.20;35.70;;;;;;491641;240;1011;-54
2021/01/09 03:31:06;;;;;;;;;;;19.20;37.10;;;;;;491846;240;1011;-54
2021/01/09 03:33:08;;;;;;;;;;;19.20;37.00;;;;;;491587;240;1166;-54
2021/01/09 03:35:09;;;;;;;;;;;19.30;37.00;;;;;;491661;240;2120;-54
2021/01/09 03:37:10;;;;;;;;;;;19.30;37.00;;;;;;491689;240;1445;-54
2021/01/09 03:39:12;;;;;;;;;;;19.30;37.00;;;;;;491657;240;1049;-54
2021/01/09 03:41:13;;;;;;;;;;;19.30;37.00;;;;;;491553;240;1137;-54
2021/01/09 03:43:14;;;;;;;;;;;19.30;37.00;;;;;;491568;240;1104;-54
2021/01/09 03:45:15;;;;;;;;;;;19.30;37.00;;;;;;491644;240;1174;-54
2021/01/09 03:47:17;;;;;;;;;;;19.30;35.70;;;;;;491624;240;1156;-54
2021/01/09 03:49:18;;;;;;;;;;;19.30;36.90;;;;;;491636;240;1246;-54
2021/01/09 03:51:19;;;;;;;;;;;19.30;36.90;;;;;;491631;240;1153;-55
2021/01/09 03:53:21;;;;;;;;;;;19.30;36.90;;;;;;491691;240;2132;-53
2021/01/09 03:55:22;;;;;;;;;;;19.30;36.90;;;;;;491794;240;991;-54
2021/01/09 03:57:23;;;;;;;;;;;19.30;36.90;;;;;;491534;240;1153;-54
2021/01/09 03:59:24;;;;;;;;;;;19.40;36.90;;;;;;491722;240;1020;-54
2021/01/09 04:01:26;;;;;;;;;;;19.40;36.90;;;;;;491591;240;1012;-54
2021/01/09 04:03:28;;;;;;;;;;;19.40;36.90;;;;;;491702;240;1182;-53
2021/01/09 04:05:28;;;;;;;;;;;19.40;36.80;;;;;;491567;240;2292;-53
2021/01/09 04:07:30;;;;;;;;;;;19.40;36.80;;;;;;491635;240;1390;-54
2021/01/09 04:09:31;;;;;;;;;;;19.40;36.80;;;;;;491757;240;1082;-54
2021/01/09 04:11:32;;;;;;;;;;;19.40;36.80;;;;;;491532;240;1196;-54
2021/01/09 04:13:34;;;;;;;;;;;19.40;36.80;;;;;;491571;240;2125;-54
2021/01/09 04:15:35;;;;;;;;;;;19.40;35.50;;;;;;491560;240;1157;-54
2021/01/09 04:17:36;;;;;;;;;;;19.40;36.80;;;;;;491675;240;1311;-54
2021/01/09 04:19:37;;;;;;;;;;;19.40;36.80;;;;;;491713;240;1146;-54
2021/01/09 04:21:39;;;;;;;;;;;19.40;36.80;;;;;;491671;240;1276;-54
2021/01/09 04:23:40;;;;;;;;;;;19.50;36.80;;;;;;491668;240;1109;-54
2021/01/09 04:25:41;;;;;;;;;;;19.50;36.90;;;;;;491541;240;1181;-54
2021/01/09 04:27:43;;;;;;;;;;;19.60;36.70;;;;;;491683;239;1272;-54
2021/01/09 04:29:44;;;;;;;;;;;19.60;36.60;;;;;;491738;240;1095;-54
2021/01/09 04:31:45;;;;;;;;;;;19.60;36.50;;;;;;491639;240;1230;-54
2021/01/09 04:33:46;;;;;;;;;;;19.50;36.50;;;;;;491884;238;2183;-54
2021/01/09 04:35:48;;;;;;;;;;;19.50;36.60;;;;;;491837;240;1025;-54
2021/01/09 04:37:49;;;;;;;;;;;19.50;36.70;;;;;;491605;240;1048;-53
2021/01/09 04:39:50;;;;;;;;;;;19.50;36.80;;;;;;491917;240;980;-54
2021/01/09 04:41:51;;;;;;;;;;;19.40;36.80;;;;;;491863;240;1003;-54
2021/01/09 04:43:53;;;;;;;;;;;19.40;36.90;;;;;;491804;240;1038;-54
2021/01/09 04:45:54;;;;;;;;;;;19.40;36.90;;;;;;491678;240;1024;-54
2021/01/09 04:47:55;;;;;;;;;;;19.30;37.00;;;;;;491655;240;1314;-54
2021/01/09 04:49:57;;;;;;;;;;;19.30;37.00;;;;;;491748;240;1134;-54
2021/01/09 04:51:58;;;;;;;;;;;19.30;37.00;;;;;;491717;240;1268;-54
2021/01/09 04:53:59;;;;;;;;;;;19.30;37.10;;;;;;491681;240;2232;-54
2021/01/09 04:56:00;;;;;;;;;;;19.20;37.10;;;;;;491636;240;1682;-54
2021/01/09 04:58:02;;;;;;;;;;;19.20;37.20;;;;;;491674;240;979;-54
2021/01/09 05:00:03;;;;;;;;;;;19.20;37.20;;;;;;491668;240;1242;-54
2021/01/09 05:02:04;;;;;;;;;;;19.10;37.20;;;;;;491624;240;1290;-54
2021/01/09 05:04:06;;;;;;;;;;;19.10;37.30;;;;;;491814;240;1154;-53
2021/01/09 05:06:07;;;;;;;;;;;19.10;37.30;;;;;;491709;240;1230;-54
2021/01/09 05:08:08;;;;;;;;;;;19.10;37.40;;;;;;491705;240;1208;-53
2021/01/09 05:10:09;;;;;;;;;;;19.00;37.40;;;;;;491647;240;987;-54
2021/01/09 05:12:12;;;;;;;;;;;19.10;37.50;;;;;;491616;240;1306;-54
2021/01/09 05:14:13;;;;;;;;;;;19.00;37.40;;;;;;491637;240;2176;-54
2021/01/09 05:16:14;;;;;;;;;;;19.00;37.50;;;;;;491815;240;976;-53
2021/01/09 05:18:15;;;;;;;;;;;18.90;37.50;;;;;;491726;240;1103;-54
2021/01/09 05:20:17;;;;;;;;;;;18.90;36.20;;;;;;491705;240;1175;-54
2021/01/09 05:22:18;;;;;;;;;;;18.90;37.60;;;;;;491803;240;1018;-54
2021/01/09 05:24:19;;;;;;;;;;;18.90;37.60;;;;;;491755;240;991;-54
2021/01/09 05:26:21;;;;;;;;;;;18.80;37.60;;;;;;491681;240;1130;-54
2021/01/09 05:28:22;;;;;;;;;;;18.80;37.70;;;;;;491643;240;1084;-54
2021/01/09 05:30:23;;;;;;;;;;;18.80;37.70;;;;;;491755;240;1295;-54
2021/01/09 05:32:26;;;;;;;;;;;18.80;37.70;;;;;;491663;240;1305;-54
2021/01/09 05:34:27;;;;;;;;;;;18.80;37.80;;;;;;491741;239;2176;-54
2021/01/09 05:36:28;;;;;;;;;;;18.80;37.80;;;;;;491664;240;1247;-54
2021/01/09 05:38:30;;;;;;;;;;;18.80;37.80;;;;;;491670;240;1047;-54
2021/01/09 05:40:31;;;;;;;;;;;18.80;37.90;;;;;;491650;240;1422;-55
2021/01/09 05:42:32;;;;;;;;;;;18.70;37.80;;;;;;491847;240;1170;-54
2021/01/09 05:44:34;;;;;;;;;;;18.70;37.80;;;;;;491674;240;1067;-54
2021/01/09 05:46:35;;;;;;;;;;;18.70;37.90;;;;;;491712;240;1071;-54
2021/01/09 05:48:36;;;;;;;;;;;18.70;37.90;;;;;;491701;240;1046;-54
2021/01/09 05:50:38;;;;;;;;;;;18.70;37.90;;;;;;491717;240;1204;-54
2021/01/09 05:52:39;;;;;;;;;;;18.60;37.90;;;;;;491674;240;1056;-54
2021/01/09 05:54:40;;;;;;;;;;;18.60;37.90;;;;;;491943;240;2188;-54
2021/01/09 05:56:41;;;;;;;;;;;18.60;36.70;;;;;;491650;240;1114;-54
2021/01/09 05:58:43;;;;;;;;;;;18.60;38.00;;;;;;491694;240;1325;-54
2021/01/09 06:00:44;;;;;;;;;;;18.60;38.00;;;;;;491898;240;1093;-54
2021/01/09 06:02:46;;;;;;;;;;;18.60;38.00;;;;;;491671;240;1116;-54
2021/01/09 06:04:47;;;;;;;;;;;18.60;38.00;;;;;;491654;240;1289;-54
2021/01/09 06:06:48;;;;;;;;;;;18.50;38.00;;;;;;491790;240;1218;-54
2021/01/09 06:08:49;;;;;;;;;;;18.50;38.00;;;;;;491648;240;1147;-54
2021/01/09 06:10:51;;;;;;;;;;;18.50;38.00;;;;;;491821;240;976;-54
2021/01/09 06:12:52;;;;;;;;;;;18.50;38.00;;;;;;491652;240;1346;-54
2021/01/09 06:14:53;;;;;;;;;;;18.50;38.00;;;;;;491667;240;2183;-54
2021/01/09 06:16:55;;;;;;;;;;;18.50;38.10;;;;;;491630;240;1066;-53
2021/01/09 06:18:57;;;;;;;;;;;18.50;38.10;;;;;;491606;240;1197;-54
2021/01/09 06:20:57;;;;;;;;;;;18.50;38.10;;;;;;491697;240;1156;-54
2021/01/09 06:22:59;;;;;;;;;;;18.50;38.10;;;;;;491777;240;1056;-54
2021/01/09 06:25:00;;;;;;;;;;;18.40;38.10;;;;;;491918;240;1044;-53
2021/01/09 06:27:01;;;;;;;;;;;18.40;38.10;;;;;;491684;240;1095;-54
2021/01/09 06:29:02;;;;;;;;;;;18.40;38.10;;;;;;491705;240;992;-54
2021/01/09 06:31:04;;;;;;;;;;;18.40;38.10;;;;;;491709;240;1158;-54
2021/01/09 06:33:05;;;;;;;;;;;18.40;38.10;;;;;;491797;240;1060;-54
2021/01/09 06:35:06;;;;;;;;;;;18.40;38.10;;;;;;491581;239;2143;-54
2021/01/09 06:37:08;;;;;;;;;;;18.40;38.20;;;;;;491544;240;1227;-54
2021/01/09 06:39:09;;;;;;;;;;;18.40;38.20;;;;;;491677;240;1111;-54
2021/01/09 06:41:10;;;;;;;;;;;18.40;38.20;;;;;;491583;240;1184;-54
2021/01/09 06:43:11;;;;;;;;;;;18.40;38.20;;;;;;491648;240;1217;-54
2021/01/09 06:45:13;;;;;;;;;;;18.40;38.20;;;;;;491640;240;1225;-54
2021/01/09 06:47:14;;;;;;;;;;;18.40;38.20;;;;;;491619;240;1222;-54
2021/01/09 06:49:15;;;;;;;;;;;18.40;38.20;;;;;;491667;240;1087;-54
2021/01/09 06:51:17;;;;;;;;;;;18.40;38.20;;;;;;491594;240;1245;-54
2021/01/09 06:53:18;;;;;;;;;;;18.30;38.20;;;;;;491727;240;1181;-54
2021/01/09 06:55:19;;;;;;;;;;;18.30;38.10;;;;;;491651;240;2128;-54
2021/01/09 06:57:20;;;;;;;;;;;18.40;38.20;;;;;;491627;240;1080;-54
2021/01/09 06:59:22;;;;;;;;;;;18.40;38.10;;;;;;491776;240;1036;-54
2021/01/09 07:01:23;;;;;;;;;;;18.40;38.10;;;;;;491630;240;1345;-54
2021/01/09 07:03:24;;;;;;;;;;;18.40;38.00;;;;;;491624;240;1047;-54
2021/01/09 07:05:25;;;;;;;;;;;18.40;37.90;;;;;;491672;240;1116;-54
2021/01/09 07:07:27;;;;;;;;;;;18.50;37.90;;;;;;491729;240;1211;-54
2021/01/09 07:09:28;;;;;;;;;;;18.50;37.90;;;;;;491651;240;1054;-54
2021/01/09 07:11:29;;;;;;;;;;;18.50;37.90;;;;;;491581;240;1345;-53
2021/01/09 07:13:31;;;;;;;;;;;18.50;37.80;;;;;;491625;240;1088;-54
2021/01/09 07:15:32;;;;;;;;;;;18.60;36.50;;;;;;491709;240;2133;-54
2021/01/09 07:17:33;;;;;;;;;;;18.50;37.80;;;;;;491596;240;1212;-54
2021/01/09 07:19:34;;;;;;;;;;;18.60;36.40;;;;;;491810;240;996;-54
2021/01/09 07:21:36;;;;;;;;;;;18.60;37.70;;;;;;491599;240;1314;-53
2021/01/09 07:23:37;;;;;;;;;;;18.60;37.70;;;;;;491712;240;1045;-54
2021/01/09 07:25:38;;;;;;;;;;;18.60;37.70;;;;;;491619;240;965;-54
2021/01/09 07:27:39;;;;;;;;;;;18.60;37.70;;;;;;491633;240;1093;-54
2021/01/09 07:29:41;;;;;;;;;;;18.60;37.60;;;;;;491686;240;1162;-54
2021/01/09 07:31:42;;;;;;;;;;;18.60;37.60;;;;;;491715;240;1049;-53
2021/01/09 07:33:43;;;;;;;;;;;18.70;37.60;;;;;;491645;240;964;-54
2021/01/09 07:35:45;;;;;;;;;;;18.70;37.60;;;;;;491726;240;2144;-54
2021/01/09 07:37:46;;;;;;;;;;;18.70;37.50;;;;;;491833;240;1133;-54
2021/01/09 07:39:48;;;;;;;;;;;18.70;37.50;;;;;;491632;240;1122;-54
2021/01/09 07:41:49;;;;;;;;;;;18.70;37.40;;;;;;491601;240;1211;-54
2021/01/09 07:43:50;;;;;;;;;;;18.80;37.40;;;;;;491844;240;1163;-54
2021/01/09 07:45:51;;;;;;;;;;;18.80;37.40;;;;;;491676;240;1253;-54
2021/01/09 07:47:53;;;;;;;;;;;18.80;37.40;;;;;;491558;240;1542;-54
2021/01/09 07:49:54;;;;;;;;;;;18.80;37.40;;;;;;491607;240;1239;-54
2021/01/09 07:51:55;;;;;;;;;;;18.80;37.30;;;;;;491589;240;1312;-54
2021/01/09 07:53:56;;;;;;;;;;;18.80;37.30;;;;;;491830;240;1103;-53
2021/01/09 07:55:58;;;;;;;;;;;18.90;37.30;;;;;;491624;240;2133;-54
2021/01/09 07:57:59;;;;;;;;;;;18.90;37.30;;;;;;491656;240;1094;-54
2021/01/09 08:00:01;;;;;;;;;;;18.90;37.30;;;;;;491553;240;1522;-54
2021/01/09 08:02:02;;;;;;;;;;;18.90;37.30;;;;;;491629;240;1263;-54
2021/01/09 08:04:04;;;;;;;;;;;18.90;37.30;;;;;;491633;240;1062;-54
2021/01/09 08:06:05;;;;;;;;;;;18.90;37.20;;;;;;491578;240;1222;-54
2021/01/09 08:08:06;;;;;;;;;;;18.90;37.20;;;;;;491761;240;1294;-54
2021/01/09 08:10:07;;;;;;;;;;;18.90;37.20;;;;;;491605;240;1210;-54
2021/01/09 08:12:09;;;;;;;;;;;19.00;37.20;;;;;;491600;240;1091;-54
2021/01/09 08:14:10;;;;;;;;;;;19.00;37.20;;;;;;491803;240;1029;-54
2021/01/09 08:16:11;;;;;;;;;;;19.00;37.20;;;;;;491562;240;2187;-54
2021/01/09 08:18:13;;;;;;;;;;;19.00;37.20;;;;;;491747;240;1212;-54
2021/01/09 08:20:14;;;;;;;;;;;19.00;37.20;;;;;;491620;240;1020;-54
2021/01/09 08:22:15;;;;;;;;;;;19.00;37.10;;;;;;491624;240;1160;-54
2021/01/09 08:24:16;;;;;;;;;;;19.00;37.10;;;;;;491755;240;1279;-54
2021/01/09 08:26:18;;;;;;;;;;;19.00;37.10;;;;;;491689;240;1027;-54
2021/01/09 08:28:19;;;;;;;;;;;19.10;37.10;;;;;;491666;240;1041;-54
2021/01/09 08:30:20;;;;;;;;;;;19.10;37.10;;;;;;491679;240;1192;-54
2021/01/09 08:32:21;;;;;;;;;;;19.10;37.10;;;;;;491536;240;1185;-54
2021/01/09 08:34:23;;;;;;;;;;;19.10;37.10;;;;;;491873;240;1071;-54
2021/01/09 08:36:24;;;;;;;;;;;19.10;37.00;;;;;;491528;240;2149;-54
2021/01/09 08:38:25;;;;;;;;;;;19.10;37.00;;;;;;491655;240;1031;-54
2021/01/09 08:40:26;;;;;;;;;;;19.10;37.00;;;;;;491668;240;1209;-54
2021/01/09 08:42:28;;;;;;;;;;;19.10;37.00;;;;;;491727;240;1297;-53
2021/01/09 08:44:29;;;;;;;;;;;19.10;37.00;;;;;;491770;240;1046;-54
2021/01/09 08:46:30;;;;;;;;;;;19.20;37.00;;;;;;491562;240;1285;-54
2021/01/09 08:48:32;;;;;;;;;;;19.10;36.90;;;;;;491637;240;1032;-54
2021/01/09 08:50:33;;;;;;;;;;;19.20;37.00;;;;;;491598;240;1109;-54
2021/01/09 08:52:34;;;;;;;;;;;19.20;37.00;;;;;;491638;240;1200;-55
2021/01/09 08:54:35;;;;;;;;;;;19.20;36.90;;;;;;491642;240;1086;-54
2021/01/09 08:56:37;;;;;;;;;;;19.20;37.00;;;;;;491556;240;2129;-54
2021/01/09 08:58:38;;;;;;;;;;;19.20;36.90;;;;;;491683;240;1036;-54
2021/01/09 09:00:39;;;;;;;;;;;19.20;36.90;;;;;;491578;240;1224;-54
2021/01/09 09:02:41;;;;;;;;;;;19.20;36.90;;;;;;491679;240;1130;-54
2021/01/09 09:04:42;;;;;;;;;;;19.20;36.90;;;;;;491693;240;1015;-54
2021/01/09 09:06:43;;;;;;;;;;;19.20;36.80;;;;;;491618;240;1285;-54
2021/01/09 09:08:44;;;;;;;;;;;19.30;36.90;;;;;;491714;240;1040;-54
2021/01/09 09:10:46;;;;;;;;;;;19.30;36.90;;;;;;491656;240;1067;-54
2021/01/09 09:12:47;;;;;;;;;;;19.30;36.80;;;;;;491609;240;1053;-54
2021/01/09 09:14:48;;;;;;;;;;;19.30;36.80;;;;;;491653;240;1018;-54
2021/01/09 09:16:50;;;;;;;;;;;19.30;36.80;;;;;;491610;240;2140;-54
2021/01/09 09:18:51;;;;;;;;;;;19.30;36.80;;;;;;491659;240;969;-54
2021/01/09 09:20:52;;;;;;;;;;;19.30;36.80;;;;;;491645;240;1030;-54
2021/01/09 09:22:53;;;;;;;;;;;19.30;36.80;;;;;;491587;240;1178;-54
2021/01/09 09:24:55;;;;;;;;;;;19.30;36.80;;;;;;491757;240;1000;-54
2021/01/09 09:26:56;;;;;;;;;;;19.30;36.80;;;;;;491776;240;1061;-54
2021/01/09 09:28:59;;;;;;;;;;;19.30;36.70;;;;;;491750;240;1076;-54
2021/01/09 09:30:58;;;;;;;;;;;19.30;36.70;;;;;;491648;240;1522;-54
2021/01/09 09:33:00;;;;;;;;;;;19.30;36.70;;;;;;491749;240;1037;-54
2021/01/09 09:35:01;;;;;;;;;;;19.40;36.70;;;;;;492129;240;958;-54
2021/01/09 09:37:02;;;;;;;;;;;19.40;36.80;;;;;;491780;240;2125;-54
2021/01/09 09:39:04;;;;;;;;;;;19.40;36.70;;;;;;491839;240;1131;-54
2021/01/09 09:41:06;;;;;;;;;;;19.40;36.70;;;;;;491642;240;1082;-53
2021/01/09 09:43:07;;;;;;;;;;;19.40;36.70;;;;;;491674;240;1127;-54
2021/01/09 09:45:08;;;;;;;;;;;19.40;36.70;;;;;;491668;240;1118;-54
2021/01/09 09:47:09;;;;;;;;;;;19.40;36.70;;;;;;491669;240;1288;-54
2021/01/09 09:49:11;;;;;;;;;;;19.40;36.70;;;;;;491679;240;1521;-54
2021/01/09 09:51:12;;;;;;;;;;;19.40;36.60;;;;;;491753;240;1068;-54
2021/01/09 09:53:13;;;;;;;;;;;19.40;36.70;;;;;;491671;240;1554;-54
2021/01/09 09:55:15;;;;;;;;;;;19.40;36.60;;;;;;491821;240;1052;-53
2021/01/09 09:57:16;;;;;;;;;;;19.40;36.60;;;;;;491949;240;2108;-54
2021/01/09 09:59:17;;;;;;;;;;;19.40;36.60;;;;;;491824;240;1179;-53
2021/01/09 10:01:18;;;;;;;;;;;19.40;36.60;;;;;;491644;240;1124;-54
2021/01/09 10:03:20;;;;;;;;;;;19.40;36.60;;;;;;491653;240;1232;-54
2021/01/09 10:05:21;;;;;;;;;;;19.40;36.60;;;;;;491657;240;987;-54
2021/01/09 10:07:23;;;;;;;;;;;19.50;36.60;;;;;;491690;240;1191;-54
2021/01/09 10:09:24;;;;;;;;;;;19.40;36.50;;;;;;491754;240;1052;-54
2021/01/09 10:11:25;;;;;;;;;;;19.50;36.60;;;;;;491735;240;1213;-54
2021/01/09 10:13:26;;;;;;;;;;;19.50;36.60;;;;;;491601;240;1194;-54
2021/01/09 10:15:28;;;;;;;;;;;19.50;36.60;;;;;;491667;240;2187;-55
2021/01/09 10:17:29;;;;;;;;;;;19.50;36.60;;;;;;491625;240;1179;-54
2021/01/09 10:19:30;;;;;;;;;;;19.50;36.50;;;;;;491672;240;957;-54
2021/01/09 10:21:32;;;;;;;;;;;19.50;36.50;;;;;;491624;240;1118;-54
2021/01/09 10:23:33;;;;;;;;;;;19.50;36.60;;;;;;491686;240;1274;-54
2021/01/09 10:25:34;;;;;;;;;;;19.50;36.50;;;;;;491735;240;991;-54
2021/01/09 10:27:35;;;;;;;;;;;19.50;36.50;;;;;;491635;240;1023;-54
2021/01/09 10:29:37;;;;;;;;;;;19.50;36.50;;;;;;491714;240;1199;-54
2021/01/09 10:31:38;;;;;;;;;;;19.50;36.50;;;;;;491549;240;1127;-54
2021/01/09 10:33:39;;;;;;;;;;;19.50;36.50;;;;;;491643;240;965;-54
2021/01/09 10:35:40;;;;;;;;;;;19.60;36.50;;;;;;491571;240;2196;-54
2021/01/09 10:37:42;;;;;;;;;;;19.50;36.50;;;;;;491640;240;1518;-54
2021/01/09 10:39:43;;;;;;;;;;;19.50;36.50;;;;;;491682;240;956;-54
2021/01/09 10:41:44;;;;;;;;;;;19.60;36.50;;;;;;491593;240;1145;-54
2021/01/09 10:43:45;;;;;;;;;;;19.50;35.20;;;;;;491809;240;1266;-54
2021/01/09 10:45:47;;;;;;;;;;;19.50;36.50;;;;;;491562;240;1209;-54
2021/01/09 10:47:48;;;;;;;;;;;19.60;36.50;;;;;;491561;240;1173;-54
2021/01/09 10:49:49;;;;;;;;;;;19.60;36.50;;;;;;491680;240;1110;-54
2021/01/09 10:51:51;;;;;;;;;;;19.60;36.50;;;;;;491601;240;1215;-54
2021/01/09 10:53:52;;;;;;;;;;;19.60;36.50;;;;;;491758;240;1285;-54
2021/01/09 10:55:53;;;;;;;;;;;19.60;36.50;;;;;;491777;240;2137;-54
2021/01/09 10:57:54;;;;;;;;;;;19.60;36.40;;;;;;491659;240;1172;-53
2021/01/09 10:59:56;;;;;;;;;;;19.60;36.50;;;;;;491639;240;1057;-54
2021/01/09 11:01:57;;;;;;;;;;;19.60;36.50;;;;;;491607;240;1335;-54
2021/01/09 11:03:58;;;;;;;;;;;19.60;36.50;;;;;;491678;240;1018;-54
2021/01/09 11:06:00;;;;;;;;;;;19.60;36.40;;;;;;491690;240;1181;-54
2021/01/09 11:08:01;;;;;;;;;;;19.60;36.40;;;;;;491709;240;1420;-54
2021/01/09 11:10:02;;;;;;;;;;;19.60;36.40;;;;;;491658;240;981;-55
2021/01/09 11:12:03;;;;;;;;;;;19.60;36.40;;;;;;491607;240;1048;-55
2021/01/09 11:14:05;;;;;;;;;;;19.60;36.30;;;;;;491201;240;1372;-54
2021/01/09 11:16:06;;;;;;;;;;;19.70;36.40;;;;;;491562;240;2181;-54
2021/01/09 11:18:07;;;;;;;;;;;19.70;36.40;;;;;;491633;240;1219;-54
2021/01/09 11:20:09;;;;;;;;;;;19.60;36.40;;;;;;491761;240;943;-54
2021/01/09 11:22:10;;;;;;;;;;;19.70;36.40;;;;;;491616;240;1157;-54
2021/01/09 11:24:11;;;;;;;;;;;19.70;36.40;;;;;;491761;240;1119;-54
2021/01/09 11:26:12;;;;;;;;;;;19.70;36.40;;;;;;491706;240;1031;-54
2021/01/09 11:28:14;;;;;;;;;;;19.60;36.30;;;;;;491715;240;1168;-54
2021/01/09 11:30:15;;;;;;;;;;;19.70;36.40;;;;;;491626;240;983;-54
2021/01/09 11:32:16;;;;;;;;;;;19.70;36.30;;;;;;491586;240;1218;-54
2021/01/09 11:34:17;;;;;;;;;;;19.70;36.30;;;;;;491642;240;1071;-54
2021/01/09 11:36:19;;;;;;;;;;;19.70;36.40;;;;;;491773;240;2185;-54
2021/01/09 11:38:21;;;;;;;;;;;19.70;36.40;;;;;;491610;240;1172;-54
2021/01/09 11:40:21;;;;;;;;;;;19.70;36.30;;;;;;491645;240;972;-54
2021/01/09 11:42:23;;;;;;;;;;;19.70;36.30;;;;;;491632;240;1190;-54
2021/01/09 11:44:24;;;;;;;;;;;19.70;36.30;;;;;;491679;240;958;-54
2021/01/09 11:46:25;;;;;;;;;;;19.70;36.30;;;;;;491628;240;1079;-54
2021/01/09 11:48:27;;;;;;;;;;;19.70;36.30;;;;;;491609;240;1190;-54
2021/01/09 11:50:29;;;;;;;;;;;19.70;36.30;;;;;;491788;240;1321;-54
2021/01/09 11:52:30;;;;;;;;;;;19.70;35.00;;;;;;491576;240;1191;-54
2021/01/09 11:54:31;;;;;;;;;;;19.70;36.30;;;;;;491759;240;1114;-54
2021/01/09 11:56:33;;;;;;;;;;;19.80;36.40;;;;;;491635;240;2187;-54